Roan Mountain, TN

8:15 AM EDT on October 01, 2014 (GMT -0400)
Ripshin Ridge | Change Station
CLOSE
Current Station
Personal Weather Station
Location: Roan Mountain, TN
Elevation: 3572 ft
Nearby Weather Stations
Active Advisory: Special Statement

Elev 3572 ft 36.17 °N, 82.15 °W | Updated 13 minutes ago

Mostly Cloudy
Mostly Cloudy
41.1 °F
Feels Like 41 °F
N
0.0
Wind Variable Wind from WSW
Gusts 0.0 mph

Today
High -- | Low -- °F
--% Chance of Precip.
Yesterday
High -- | Low -- °F
Precip. -- in
7:23 AM 7:11 PM
Waxing Crescent, 47% visible
Pressure 30.04 in
Visibility 10.0 miles
Clouds Clear
Windchill 41 °F
Dew Point 41 °F
Humidity 98%
Rainfall 0.00 in
Snow Depth Not available.
UV 0 out of 12
Pollen 4.10 out of 12
Air Quality Not available.
Flu Activity Not available.
METAR K0A9 011155Z AUTO VRB03KT 10SM CLR 12/11 A3004 RMK

More Conditions Fewer Conditions

Pressure 30.04 in
Visibility 10.0 miles
Clouds Clear
Windchill 41 °F
Dew Point 41 °F
Humidity 98%
Rainfall 0.00 in
Snow Depth Not available.
UV 0 out of 12
Pollen 4.10 out of 12
Air Quality Not available.
Flu Activity Not available.
METAR K0A9 011155Z AUTO VRB03KT 10SM CLR 12/11 A3004 RMK

More Conditions Fewer Conditions

10-Day Weather Forecast

Almanac

Astronomy

Oct. 01, 2014 Rise Set
Actual Time 7:23 AM EDT 7:11 PM EDT
Civil Twilight 6:57 AM EDT 7:37 PM EDT
Nautical Twilight 6:28 AM EDT 8:07 PM EDT
Astronomical Twilight 5:58 AM EDT 8:37 PM EDT
Moon 2:15 PM EDT No Moon Set
Length of Visible Light 12h 39m
Length of Day
11h 48m
Tomorrow will be 2m 16s shorter.
Waxing Crescent, 47% of the Moon is Illuminated
Today
Waxing Crescent
Oct 1
First Quarter
Oct 8
Full
Oct 15
Last Quarter
Oct 23
New

Today's Extremes

State Highs State Lows

Community

WunderPhotos

Upload Photos

1,757,914 photos uploaded!

WunderBlogs® & News

Nearby

Snow Depth

Station Depth Elevation
No new snow has been reported.

Earthquake Activity

City Distance Mag. Time & Date
No recent earthquake activity has been reported nearby.
Minimum magnitude displayed is 2.5.

Coastal Water Temperatures

Place Temperature
No Stations Reporting

Nearby Weather Stations